KAQR

Atoka Municipal Airport

Atoka, Oklahoma, USA
METAR KAQR 200515Z AUTO 17004KT 10SM CLR 26/17 A2992 RMK AO2
Observed Flight Rules
Jun-20 @ 05:15 UTC (30 minutes ago) Visual Flight Rules
Wind Visibility Clouds
170° at 4 knots 10 miles
  • Clear skies
Temperatures Readings
Current 26°C / 79°F
Dewpoint 17°C / 63°F
Humidity 58%
Altimeter 29.92" Hg
Pressure 1013 hPa
Elevation 189
METAR KAQR 200515Z AUTO 17004KT 10SM CLR 26/17 A2992 RMK AO2
Observed Flight Rules
Jun-20 @ 05:15 UTC
(30 minutes ago)
VFR
Wind Visibility
170° at 4 knots 10 miles
Clouds
  • Clear skies
Temperature Dewpoint
26°C / 79°F 17°C / 63°F
Humidity Altimeter Pressure
58% 29.92" Hg 1013 hPa